Time;durP1;ratioP1;P1;durP2;ratioP2;P2;SDS_P1;SDS_P2;PMS_P1;PMS_P2;Temp;Humidity;BMP_temperature;BMP_pressure;BME280_temperature;BME280_humidity;BME280_pressure;Samples;Min_cycle;Max_cycle;Signal;HPM_P1;HPM_P2
2022/05/26 00:00:09;;;;;;;;;;;;;;;20.33;43.33;100763.97;5037006;28;7378;-74
2022/05/26 00:02:35;;;;;;;;;;;;;;;20.31;43.29;100761.38;5008558;28;6922;-74
2022/05/26 00:05:01;;;;;;;;;;;;;;;20.30;43.21;100757.03;5007904;28;7243;-74
2022/05/26 00:07:26;;;;;;;;;;;;;;;20.30;43.18;100758.75;5013014;28;7274;-74
2022/05/26 00:09:52;;;;;;;;;;;;;;;20.28;43.26;100740.53;5020904;28;6783;-74
2022/05/26 00:12:19;;;;;;;;;;;;;;;20.28;43.58;100752.66;5007069;28;6792;-74
2022/05/26 00:14:45;;;;;;;;;;;;;;;20.25;44.07;100753.47;5007018;28;7884;-74
2022/05/26 00:17:11;;;;;;;;;;;;;;;20.23;43.75;100747.38;5003407;28;6887;-75
2022/05/26 00:19:37;;;;;;;;;;;;;;;20.24;43.56;100754.34;5015298;28;6803;-75
2022/05/26 00:22:03;;;;;;;;;;;;;;;20.25;43.78;100753.47;5037326;28;8143;-75
2022/05/26 00:24:29;;;;;;;;;;;;;;;20.24;43.71;100749.13;5019659;28;6791;-75
2022/05/26 00:26:55;;;;;;;;;;;;;;;20.25;44.09;100751.75;5007903;28;6788;-75
2022/05/26 00:29:20;;;;;;;;;;;;;;;20.23;43.63;100750.88;5016834;28;6856;-75
2022/05/26 00:31:46;;;;;;;;;;;;;;;20.24;43.96;100750.03;5002436;28;6974;-75
2022/05/26 00:34:12;;;;;;;;;;;;;;;20.25;44.10;100753.47;5017610;28;7063;-75
2022/05/26 00:36:37;;;;;;;;;;;;;;;20.25;43.99;100756.06;5015829;28;8322;-75
2022/05/26 00:39:12;;;;;;;;;;;;;;;20.24;43.98;100755.22;5016551;28;6890;-75
2022/05/26 00:41:43;;;;;;;;;;;;;;;20.24;44.13;100751.72;5031596;28;6796;-74
2022/05/26 00:44:10;;;;;;;;;;;;;;;20.21;44.50;100760.38;5017897;28;7608;-74
2022/05/26 00:46:39;;;;;;;;;;;;;;;20.20;44.86;100752.56;5016443;28;7260;-74
2022/05/26 00:49:16;;;;;;;;;;;;;;;20.19;44.51;100750.81;5016516;28;7191;-74
2022/05/26 00:51:44;;;;;;;;;;;;;;;20.19;44.78;100761.22;5012229;28;6819;-74
2022/05/26 00:54:18;;;;;;;;;;;;;;;20.19;44.70;100756.88;5037527;28;7007;-74
2022/05/26 00:57:13;;;;;;;;;;;;;;;20.19;44.98;100753.41;5020485;28;7030;-74
2022/05/26 01:00:03;;;;;;;;;;;;;;;20.18;44.83;100749.03;5005846;28;6895;-74
2022/05/26 01:02:36;;;;;;;;;;;;;;;20.17;44.94;100758.59;5029999;28;6836;-74
2022/05/26 01:05:17;;;;;;;;;;;;;;;20.19;45.18;100756.00;5027543;28;6907;-74
2022/05/26 01:07:43;;;;;;;;;;;;;;;20.18;44.90;100754.22;4987163;28;7005;-74
2022/05/26 01:10:13;;;;;;;;;;;;;;;20.19;45.44;100753.41;5009937;28;7204;-74
2022/05/26 01:12:39;;;;;;;;;;;;;;;20.18;44.99;100754.22;4988794;28;6804;-74
2022/05/26 01:15:08;;;;;;;;;;;;;;;20.19;45.38;100761.22;5005500;28;6788;-74
2022/05/26 01:18:18;;;;;;;;;;;;;;;20.17;45.08;100761.19;5021598;28;7222;-74
2022/05/26 01:21:38;;;;;;;;;;;;;;;20.12;45.92;100768.03;5010581;28;6827;-74
2022/05/26 01:24:36;;;;;;;;;;;;;;;20.08;45.52;100772.31;4971689;28;7160;-74
2022/05/26 01:27:27;;;;;;;;;;;;;;;20.08;46.13;100779.25;5008831;28;6808;-74
2022/05/26 01:30:16;;;;;;;;;;;;;;;20.06;45.91;100787.03;5010969;28;6853;-74
2022/05/26 01:33:25;;;;;;;;;;;;;;;20.04;46.02;100778.34;5018477;28;7892;-74
2022/05/26 01:36:13;;;;;;;;;;;;;;;20.05;46.21;100774.88;5005341;28;6832;-74
2022/05/26 01:39:03;;;;;;;;;;;;;;;20.05;45.85;100785.28;5023306;28;6843;-74
2022/05/26 01:41:43;;;;;;;;;;;;;;;20.02;45.92;100777.44;5009095;28;6904;-74
2022/05/26 01:44:27;;;;;;;;;;;;;;;20.02;46.52;100779.16;5013739;28;6816;-74
2022/05/26 01:47:01;;;;;;;;;;;;;;;20.03;46.27;100786.13;5011995;28;6883;-74
2022/05/26 01:49:44;;;;;;;;;;;;;;;20.02;46.83;100779.16;5036725;28;8398;-75
2022/05/26 01:52:18;;;;;;;;;;;;;;;20.01;46.79;100783.50;5012433;28;6839;-74
2022/05/26 01:55:27;;;;;;;;;;;;;;;20.02;46.37;100776.56;5009686;28;7214;-74
2022/05/26 01:58:24;;;;;;;;;;;;;;;19.99;46.55;100780.03;5012980;28;7161;-74
2022/05/26 02:00:54;;;;;;;;;;;;;;;19.98;46.62;100779.13;5008232;28;7424;-74
2022/05/26 02:03:27;;;;;;;;;;;;;;;19.98;46.55;100779.13;5004832;28;6999;-74
2022/05/26 02:06:26;;;;;;;;;;;;;;;19.95;46.87;100779.09;5013050;28;7290;-74
2022/05/26 02:09:07;;;;;;;;;;;;;;;19.93;46.62;100779.88;5005827;28;7888;-74
2022/05/26 02:11:46;;;;;;;;;;;;;;;19.91;47.53;100781.59;5036835;28;6895;-74
2022/05/26 02:14:48;;;;;;;;;;;;;;;19.89;47.09;100783.25;5035472;28;6811;-74
2022/05/26 02:17:23;;;;;;;;;;;;;;;19.86;47.60;100784.13;5003042;28;6907;-74
2022/05/26 02:19:56;;;;;;;;;;;;;;;19.83;47.26;100784.94;5002891;28;7050;-74
2022/05/26 02:22:25;;;;;;;;;;;;;;;19.82;47.68;100791.00;5035383;28;7038;-74
2022/05/26 02:25:14;;;;;;;;;;;;;;;19.80;47.68;100792.69;5015597;28;6823;-74
2022/05/26 02:27:40;;;;;;;;;;;;;;;19.78;47.91;100804.78;5039104;28;8555;-74
2022/05/26 02:30:07;;;;;;;;;;;;;;;19.78;48.00;100802.19;5013774;28;6811;-74
2022/05/26 02:32:46;;;;;;;;;;;;;;;19.78;47.45;100812.56;5035178;28;8297;-74
2022/05/26 02:35:18;;;;;;;;;;;;;;;19.76;47.61;100808.22;5005936;28;6811;-74
2022/05/26 02:37:48;;;;;;;;;;;;;;;19.76;47.55;100813.44;5036021;28;8355;-74
2022/05/26 02:40:15;;;;;;;;;;;;;;;19.77;48.46;100816.03;5010159;28;7281;-73
2022/05/26 02:43:10;;;;;;;;;;;;;;;19.76;47.76;100814.28;5035061;28;8060;-73
2022/05/26 02:46:01;;;;;;;;;;;;;;;19.75;48.03;100815.13;5011217;28;6833;-73
2022/05/26 02:48:41;;;;;;;;;;;;;;;19.75;48.74;100812.53;5020215;28;6891;-73
2022/05/26 02:51:34;;;;;;;;;;;;;;;19.74;48.47;100821.19;5013280;28;6824;-73
2022/05/26 02:54:43;;;;;;;;;;;;;;;19.71;48.96;100821.16;5029377;28;6815;-73
2022/05/26 02:57:39;;;;;;;;;;;;;;;19.70;48.27;100821.97;5033681;28;6819;-73
2022/05/26 03:00:08;;;;;;;;;;;;;;;19.68;48.48;100823.69;4998871;28;7001;-73
2022/05/26 03:02:51;;;;;;;;;;;;;;;19.68;48.72;100829.75;5009493;28;6899;-73
2022/05/26 03:05:34;;;;;;;;;;;;;;;19.67;49.09;100828.00;5024086;28;7262;-73
2022/05/26 03:08:04;;;;;;;;;;;;;;;19.66;49.02;100828.88;5017150;28;7415;-74
2022/05/26 03:10:32;;;;;;;;;;;;;;;19.64;48.75;100827.09;5009509;28;6823;-74
2022/05/26 03:13:00;;;;;;;;;;;;;;;19.63;48.98;100825.34;5029944;28;6834;-74
2022/05/26 03:15:27;;;;;;;;;;;;;;;19.61;48.87;100824.44;5009443;28;6875;-74
2022/05/26 03:17:53;;;;;;;;;;;;;;;19.60;48.81;100826.16;5038684;28;6795;-74
2022/05/26 03:20:18;;;;;;;;;;;;;;;19.57;48.78;100826.09;5008768;28;6799;-74
2022/05/26 03:22:44;;;;;;;;;;;;;;;19.55;49.51;100828.66;5043572;28;6790;-73
2022/05/26 03:25:10;;;;;;;;;;;;;;;19.54;49.47;100831.22;5007720;28;6780;-73
2022/05/26 03:27:36;;;;;;;;;;;;;;;19.53;49.14;100832.97;5014620;28;6811;-73
2022/05/26 03:30:03;;;;;;;;;;;;;;;19.54;49.57;100839.91;5010255;28;6772;-73
2022/05/26 03:32:28;;;;;;;;;;;;;;;19.54;49.19;100839.91;5038271;28;6896;-73
2022/05/26 03:43:10;;;;;;;;;;;;;;;19.59;50.00;100845.19;5004900;28;6911;-73
2022/05/26 03:45:37;;;;;;;;;;;;;;;19.59;49.68;100846.91;5039968;28;6820;-73
2022/05/26 03:48:05;;;;;;;;;;;;;;;19.60;49.93;100848.66;5042899;28;6807;-73
2022/05/26 03:50:31;;;;;;;;;;;;;;;19.60;50.04;100849.56;5039399;28;6791;-73
2022/05/26 03:52:57;;;;;;;;;;;;;;;19.61;49.71;100847.84;4996035;28;6993;-73
2022/05/26 03:55:24;;;;;;;;;;;;;;;19.59;49.99;100847.81;5006708;28;7020;-74
2022/05/26 03:57:50;;;;;;;;;;;;;;;19.59;49.94;100855.59;5012467;28;6795;-74
2022/05/26 04:00:23;;;;;;;;;;;;;;;19.60;49.79;100859.94;4987368;28;6792;-74
2022/05/26 04:02:49;;;;;;;;;;;;;;;19.62;50.25;100865.19;5020219;28;8060;-74
2022/05/26 04:05:16;;;;;;;;;;;;;;;19.63;50.18;100867.78;5007057;28;6796;-73
2022/05/26 04:07:42;;;;;;;;;;;;;;;19.64;50.27;100872.13;5037553;28;7063;-73
2022/05/26 04:10:11;;;;;;;;;;;;;;;19.66;49.95;100874.78;5037061;28;6776;-73
2022/05/26 04:12:38;;;;;;;;;;;;;;;19.66;49.86;100878.28;4999298;28;8325;-74
2022/05/26 04:15:06;;;;;;;;;;;;;;;19.67;49.71;100876.53;5011891;28;6811;-74
2022/05/26 04:17:32;;;;;;;;;;;;;;;19.68;49.65;100884.38;5009121;28;7151;-74
2022/05/26 04:19:58;;;;;;;;;;;;;;;19.69;49.83;100885.22;5025066;28;6957;-74
2022/05/26 04:22:24;;;;;;;;;;;;;;;19.70;50.07;100886.97;4990090;28;6918;-74
2022/05/26 04:24:56;;;;;;;;;;;;;;;19.69;49.87;100886.13;5034296;28;6795;-74
2022/05/26 04:27:24;;;;;;;;;;;;;;;19.70;50.45;100893.06;5027283;28;7064;-74
2022/05/26 04:29:50;;;;;;;;;;;;;;;19.71;49.83;100894.81;5016902;28;7908;-74
2022/05/26 04:32:16;;;;;;;;;;;;;;;19.72;50.01;100890.50;5029637;28;6780;-74
2022/05/26 04:34:45;;;;;;;;;;;;;;;19.72;50.51;100887.91;5021854;28;7402;-74
2022/05/26 04:37:11;;;;;;;;;;;;;;;19.74;50.06;100893.09;5035724;28;7012;-74
2022/05/26 04:39:36;;;;;;;;;;;;;;;19.76;49.88;100887.09;5016046;28;7808;-74
2022/05/26 04:42:04;;;;;;;;;;;;;;;19.80;50.30;100893.22;5035363;28;6859;-75
2022/05/26 04:44:34;;;;;;;;;;;;;;;19.83;50.19;100896.75;5022246;28;6795;-75
2022/05/26 04:47:00;;;;;;;;;;;;;;;19.85;50.73;100895.06;4998800;28;8100;-74
2022/05/26 04:49:28;;;;;;;;;;;;;;;19.88;50.17;100895.97;5017555;28;8748;-74
2022/05/26 04:51:54;;;;;;;;;;;;;;;19.91;50.76;100896.88;4986047;28;6804;-74
2022/05/26 04:54:21;;;;;;;;;;;;;;;19.95;50.59;100900.47;5002614;28;6808;-74
2022/05/26 04:56:48;;;;;;;;;;;;;;;20.01;50.32;100910.09;4999239;28;6804;-74
2022/05/26 04:59:15;;;;;;;;;;;;;;;20.04;50.11;100908.41;5000316;28;6807;-74
2022/05/26 05:01:41;;;;;;;;;;;;;;;20.07;50.64;100913.66;5018838;28;6800;-74
2022/05/26 05:04:07;;;;;;;;;;;;;;;20.09;49.92;100916.31;5019139;28;6808;-74
2022/05/26 05:06:33;;;;;;;;;;;;;;;20.11;49.87;100919.81;5021531;28;6871;-74
2022/05/26 05:08:59;;;;;;;;;;;;;;;20.11;50.24;100923.28;5034871;28;8780;-74
2022/05/26 05:11:25;;;;;;;;;;;;;;;20.11;50.46;100915.50;5016582;28;7258;-74
2022/05/26 05:13:51;;;;;;;;;;;;;;;20.14;50.12;100927.69;5006254;28;6804;-74
2022/05/26 05:16:32;;;;;;;;;;;;;;;20.19;50.20;100922.56;5012298;28;6827;-72
2022/05/26 05:18:58;;;;;;;;;;;;;;;20.28;50.38;100927.03;5012303;28;6816;-73
2022/05/26 05:21:31;;;;;;;;;;;;;;;20.36;50.25;100926.28;5033486;28;6771;-73
2022/05/26 05:24:07;;;;;;;;;;;;;;;20.51;50.49;100927.38;5007801;28;6820;-73
2022/05/26 05:26:40;;;;;;;;;;;;;;;20.71;50.72;100926.81;5036696;28;7208;-73
2022/05/26 05:29:14;;;;;;;;;;;;;;;20.93;50.99;100922.81;5003129;28;6980;-74
2022/05/26 05:31:52;;;;;;;;;;;;;;;21.27;50.78;100928.44;5016660;28;7008;-73
2022/05/26 05:34:37;;;;;;;;;;;;;;;21.64;50.55;100933.22;5037636;28;6991;-73
2022/05/26 05:37:05;;;;;;;;;;;;;;;21.98;50.05;100933.56;5037006;28;7056;-73
2022/05/26 05:39:31;;;;;;;;;;;;;;;22.20;49.46;100936.38;5009840;28;6986;-73
2022/05/26 05:41:59;;;;;;;;;;;;;;;22.30;48.32;100939.94;5007215;28;7304;-73
2022/05/26 05:44:27;;;;;;;;;;;;;;;22.29;47.54;100939.06;5045060;28;6804;-73
2022/05/26 05:46:57;;;;;;;;;;;;;;;22.23;47.98;100941.63;5017143;28;8333;-73
2022/05/26 05:49:30;;;;;;;;;;;;;;;22.19;47.89;100945.94;5012250;28;7214;-73
2022/05/26 05:52:05;;;;;;;;;;;;;;;22.29;48.45;100946.03;5018857;28;7888;-73
2022/05/26 05:54:31;;;;;;;;;;;;;;;22.42;47.87;100947.84;4999971;28;7281;-73
2022/05/26 05:56:57;;;;;;;;;;;;;;;22.57;47.72;100948.88;5011704;28;7339;-73
2022/05/26 05:59:23;;;;;;;;;;;;;;;22.65;47.58;100941.09;4998787;28;6907;-73
2022/05/26 06:01:49;;;;;;;;;;;;;;;22.67;46.88;100942.84;5015579;28;6969;-73
2022/05/26 06:04:15;;;;;;;;;;;;;;;22.63;46.79;100950.66;5015200;28;7911;-73
2022/05/26 06:06:44;;;;;;;;;;;;;;;22.55;46.41;100955.81;5013984;28;6863;-73
2022/05/26 06:09:13;;;;;;;;;;;;;;;22.45;46.73;100960.97;5006363;28;6963;-74
2022/05/26 06:11:43;;;;;;;;;;;;;;;22.38;46.36;100968.72;5033556;28;7473;-73
2022/05/26 06:14:08;;;;;;;;;;;;;;;22.36;46.63;100970.44;5029325;28;6994;-73
2022/05/26 06:16:35;;;;;;;;;;;;;;;22.35;47.07;100966.94;5004380;28;7926;-73
2022/05/26 06:19:01;;;;;;;;;;;;;;;22.38;46.91;100972.22;4987359;28;6883;-73
2022/05/26 06:21:27;;;;;;;;;;;;;;;22.42;46.94;100970.50;5034898;28;7020;-73
2022/05/26 06:23:56;;;;;;;;;;;;;;;22.45;46.62;100971.41;5000368;28;6895;-73
2022/05/26 06:26:28;;;;;;;;;;;;;;;22.49;46.61;100972.31;5040706;28;7864;-73
2022/05/26 06:37:13;;;;;;;;;;;;;;;22.59;46.43;100987.19;5033175;28;6981;-73
2022/05/26 06:37:13;;;;;;;;;;;;;;;22.59;46.38;100997.63;5008960;28;7394;-73
2022/05/26 06:39:39;;;;;;;;;;;;;;;22.59;46.16;100995.03;5030733;28;6894;-73
2022/05/26 06:42:05;;;;;;;;;;;;;;;22.62;46.30;101004.63;5012355;28;6873;-73
2022/05/26 06:44:39;;;;;;;;;;;;;;;22.59;46.30;100997.63;5014408;28;6812;-73
2022/05/26 06:47:21;;;;;;;;;;;;;;;22.57;46.43;100994.16;5039253;28;6812;-74
2022/05/26 06:49:48;;;;;;;;;;;;;;;22.62;46.52;101004.63;5010817;28;6800;-73
2022/05/26 06:52:17;;;;;;;;;;;;;;;22.74;46.29;100999.50;5007929;28;6888;-73
2022/05/26 06:54:46;;;;;;;;;;;;;;;22.86;45.92;101008.28;5007929;28;6815;-73
2022/05/26 06:57:13;;;;;;;;;;;;;;;22.95;45.70;101010.97;5015005;28;6891;-73
2022/05/26 06:59:39;;;;;;;;;;;;;;;23.06;45.80;101004.94;4984257;28;6808;-73
2022/05/26 07:02:09;;;;;;;;;;;;;;;23.21;46.06;101019.81;5013245;28;6891;-73
2022/05/26 07:04:35;;;;;;;;;;;;;;;23.34;45.51;101019.03;5036703;28;6910;-73
2022/05/26 07:07:01;;;;;;;;;;;;;;;23.43;44.86;101021.69;5007073;28;6800;-73
2022/05/26 07:09:27;;;;;;;;;;;;;;;23.50;44.76;101022.59;5020176;28;6796;-73
2022/05/26 07:11:53;;;;;;;;;;;;;;;23.52;44.31;101025.22;5021526;28;6791;-73
2022/05/26 07:14:19;;;;;;;;;;;;;;;23.49;43.69;101025.22;5019723;28;6808;-73
2022/05/26 07:16:45;;;;;;;;;;;;;;;23.41;43.81;101028.69;5034619;28;6796;-73
2022/05/26 07:19:14;;;;;;;;;;;;;;;23.35;44.17;101033.88;5021077;28;7284;-73
2022/05/26 07:21:46;;;;;;;;;;;;;;;23.24;43.78;101035.53;5019456;28;6827;-73
2022/05/26 07:24:13;;;;;;;;;;;;;;;23.10;43.89;101038.94;5033366;28;7546;-73
2022/05/26 07:26:40;;;;;;;;;;;;;;;23.03;44.03;101038.03;5007793;28;7104;-73
2022/05/26 07:29:06;;;;;;;;;;;;;;;23.01;44.08;101039.75;5008768;28;6803;-73
2022/05/26 07:31:32;;;;;;;;;;;;;;;23.06;44.41;101047.63;4996382;28;7489;-73
2022/05/26 07:33:58;;;;;;;;;;;;;;;23.16;44.30;101043.34;5028883;28;6878;-73
2022/05/26 07:42:03;;;;;;;;;;;;;;;23.63;44.24;101044.47;5007757;28;8517;-73
2022/05/26 07:44:35;;;;;;;;;;;;;;;23.79;43.87;101055.00;5030902;28;6847;-73
2022/05/26 07:47:03;;;;;;;;;;;;;;;23.98;43.49;101045.44;5006542;28;6836;-73
2022/05/26 07:49:29;;;;;;;;;;;;;;;24.11;43.20;101051.63;5006935;28;6812;-73
2022/05/26 07:51:57;;;;;;;;;;;;;;;24.17;43.48;101056.88;5038703;28;6799;-73
2022/05/26 07:54:23;;;;;;;;;;;;;;;24.10;42.27;101056.00;5014204;28;6891;-74
2022/05/26 07:56:49;;;;;;;;;;;;;;;23.98;42.57;101056.78;4991554;28;7678;-74
2022/05/26 07:59:15;;;;;;;;;;;;;;;23.83;42.38;101062.88;5012504;28;7964;-73
2022/05/26 08:01:41;;;;;;;;;;;;;;;23.74;42.56;101069.78;5010852;28;6875;-73
2022/05/26 08:04:07;;;;;;;;;;;;;;;23.65;42.50;101060.16;5019626;28;6883;-73
2022/05/26 08:06:34;;;;;;;;;;;;;;;23.58;42.74;101069.75;5012578;28;6796;-73
2022/05/26 08:08:59;;;;;;;;;;;;;;;23.54;42.55;101070.56;5004871;28;6966;-73
2022/05/26 08:11:25;;;;;;;;;;;;;;;23.57;42.71;101071.47;5014630;28;6816;-73
2022/05/26 08:13:51;;;;;;;;;;;;;;;23.71;43.20;101068.91;5012040;28;7033;-73
2022/05/26 08:16:16;;;;;;;;;;;;;;;23.86;42.81;101075.09;5010980;28;6868;-73
2022/05/26 08:18:42;;;;;;;;;;;;;;;24.06;42.71;101080.41;5009132;28;7173;-73
2022/05/26 08:21:16;;;;;;;;;;;;;;;24.25;42.24;101077.81;5010405;28;7461;-73
2022/05/26 08:23:41;;;;;;;;;;;;;;;24.40;42.11;101085.72;5006827;28;6820;-73
2022/05/26 08:26:07;;;;;;;;;;;;;;;24.68;41.92;101085.75;5008227;28;6791;-73
2022/05/26 08:28:33;;;;;;;;;;;;;;;25.04;41.82;101087.50;5010249;28;7387;-73
2022/05/26 08:31:00;;;;;;;;;;;;;;;25.31;41.01;101083.06;5008520;28;6792;-73
2022/05/26 08:33:27;;;;;;;;;;;;;;;25.41;40.56;101087.41;5012622;28;7308;-73
2022/05/26 08:36:13;;;;;;;;;;;;;;;25.43;39.98;101090.03;5008477;28;6820;-73
2022/05/26 08:38:40;;;;;;;;;;;;;;;25.52;40.02;101085.66;5024878;28;8560;-73
2022/05/26 08:41:11;;;;;;;;;;;;;;;25.62;39.23;101091.75;5004385;28;6959;-73
2022/05/26 08:44:12;;;;;;;;;;;;;;;25.62;38.81;101097.00;5003744;28;8112;-73
2022/05/26 08:47:01;;;;;;;;;;;;;;;25.43;39.00;101096.16;5012371;28;6835;-73
2022/05/26 08:49:51;;;;;;;;;;;;;;;25.36;39.64;101097.91;5037670;28;6895;-73
2022/05/26 08:52:28;;;;;;;;;;;;;;;25.66;39.62;101097.88;5039363;28;6815;-73
2022/05/26 08:55:03;;;;;;;;;;;;;;;26.20;39.54;101095.00;5024768;28;6835;-73
2022/05/26 08:57:58;;;;;;;;;;;;;;;26.97;39.30;101095.34;5033633;28;6896;-73
2022/05/26 09:00:25;;;;;;;;;;;;;;;27.74;37.64;101087.50;5005212;28;6824;-74
2022/05/26 09:02:59;;;;;;;;;;;;;;;28.19;36.82;101086.91;5006814;28;7877;-74
2022/05/26 09:05:34;;;;;;;;;;;;;;;28.46;35.93;101094.41;5038169;28;7252;-74
2022/05/26 09:14:04;;;;;;;;;;;;;;;29.00;36.31;101088.25;5037015;28;8644;-74
2022/05/26 09:16:43;;;;;;;;;;;;;;;29.61;35.31;101092.41;5009221;28;6808;-74
2022/05/26 09:19:09;;;;;;;;;;;;;;;29.97;34.20;101092.53;5036586;28;7027;-74
2022/05/26 09:21:36;;;;;;;;;;;;;;;30.35;33.94;101095.19;5013628;28;6780;-74
2022/05/26 09:24:26;;;;;;;;;;;;;;;30.84;33.15;101093.16;5019437;28;7209;-74
2022/05/26 09:26:59;;;;;;;;;;;;;;;31.28;33.10;101097.28;5032007;28;6899;-74
2022/05/26 09:29:34;;;;;;;;;;;;;;;31.51;31.98;101085.19;5016970;28;6819;-74
2022/05/26 09:32:04;;;;;;;;;;;;;;;31.40;31.68;101096.09;5033566;28;6808;-74
2022/05/26 09:34:34;;;;;;;;;;;;;;;31.41;31.60;101098.69;5035575;28;7165;-74
2022/05/26 09:37:07;;;;;;;;;;;;;;;31.45;31.67;101088.91;5036196;28;6823;-74
2022/05/26 09:39:42;;;;;;;;;;;;;;;31.55;31.71;101105.38;5034076;28;7434;-74
2022/05/26 09:42:17;;;;;;;;;;;;;;;31.56;31.23;101101.81;5001209;28;6946;-74
2022/05/26 09:45:06;;;;;;;;;;;;;;;31.51;31.33;101114.31;5016554;28;6835;-74
2022/05/26 09:47:38;;;;;;;;;;;;;;;31.20;30.70;101110.72;5014458;28;6811;-74
2022/05/26 09:50:28;;;;;;;;;;;;;;;30.70;30.85;101114.66;5015456;28;6888;-74
2022/05/26 09:52:54;;;;;;;;;;;;;;;30.51;31.87;101116.84;5004599;28;6851;-74
2022/05/26 09:55:28;;;;;;;;;;;;;;;30.67;31.54;101116.50;5011338;28;7124;-74
2022/05/26 09:58:27;;;;;;;;;;;;;;;30.76;31.02;101121.56;5010674;28;8198;-74
2022/05/26 10:01:00;;;;;;;;;;;;;;;30.49;31.09;101130.13;5031530;28;7390;-74
2022/05/26 10:03:43;;;;;;;;;;;;;;;30.06;31.14;101129.34;5028447;28;6812;-74
2022/05/26 10:06:21;;;;;;;;;;;;;;;29.75;31.72;101127.34;5006214;28;6899;-74
2022/05/26 10:09:19;;;;;;;;;;;;;;;29.91;31.04;101129.63;4990867;28;6808;-73
2022/05/26 10:11:57;;;;;;;;;;;;;;;29.74;30.96;101130.84;5015572;28;6831;-73
2022/05/26 10:14:34;;;;;;;;;;;;;;;29.66;31.19;101138.94;5012681;28;6936;-73
2022/05/26 10:17:25;;;;;;;;;;;;;;;29.70;31.47;101130.94;5011047;28;6991;-73
2022/05/26 10:20:23;;;;;;;;;;;;;;;29.70;30.93;101137.13;5009929;28;6896;-73
2022/05/26 10:23:25;;;;;;;;;;;;;;;29.51;31.31;101134.00;5036036;28;6843;-73
2022/05/26 10:26:31;;;;;;;;;;;;;;;29.18;31.66;101141.59;5010874;28;6919;-73
2022/05/26 10:29:46;;;;;;;;;;;;;;;29.42;31.83;101134.97;5036752;28;6827;-73
2022/05/26 10:32:57;;;;;;;;;;;;;;;29.29;31.08;101139.63;5030628;28;6823;-73
2022/05/26 10:35:46;;;;;;;;;;;;;;;28.83;31.38;101136.03;5011838;28;7327;-73
2022/05/26 10:38:34;;;;;;;;;;;;;;;28.91;32.84;101135.91;4986123;28;6844;-73
2022/05/26 10:41:38;;;;;;;;;;;;;;;29.49;32.29;101133.13;5025024;28;7868;-73
2022/05/26 10:44:21;;;;;;;;;;;;;;;29.64;30.44;101135.47;5010988;28;6839;-73
2022/05/26 10:47:21;;;;;;;;;;;;;;;29.18;31.52;101141.59;5011253;28;7215;-73
2022/05/26 10:50:08;;;;;;;;;;;;;;;29.19;31.62;101141.59;5008452;28;7145;-73
2022/05/26 10:52:44;;;;;;;;;;;;;;;29.89;31.79;101142.91;5002922;28;7021;-73
2022/05/26 10:55:34;;;;;;;;;;;;;;;30.75;30.26;101141.84;5022082;28;7010;-73
2022/05/26 10:58:32;;;;;;;;;;;;;;;30.97;29.62;101141.31;5014412;28;7115;-73
2022/05/26 11:01:09;;;;;;;;;;;;;;;30.57;29.34;101142.31;5013985;28;6816;-73
2022/05/26 11:03:42;;;;;;;;;;;;;;;30.14;30.16;101146.81;5005119;28;6999;-73
2022/05/26 11:06:31;;;;;;;;;;;;;;;29.94;30.07;101153.38;5016596;28;6831;-73
2022/05/26 11:09:12;;;;;;;;;;;;;;;30.34;30.73;101147.22;5011289;28;6818;-73
2022/05/26 11:11:38;;;;;;;;;;;;;;;30.87;30.16;101140.69;5022178;28;7082;-73
2022/05/26 11:17:44;;;;;;;;;;;;;;;31.39;29.51;101132.31;5003497;28;8609;-73
2022/05/26 11:20:38;;;;;;;;;;;;;;;31.84;28.30;101133.69;5038020;28;7313;-73
2022/05/26 11:23:04;;;;;;;;;;;;;;;31.83;27.93;101133.72;5004707;28;6816;-73
2022/05/26 11:25:45;;;;;;;;;;;;;;;31.39;27.78;101137.59;5022845;28;7176;-73
2022/05/26 11:28:44;;;;;;;;;;;;;;;30.59;28.32;101141.34;5003361;28;6832;-73
2022/05/26 11:37:35;;;;;;;;;;;;;;;29.03;30.19;101138.34;5033078;28;6908;-73
2022/05/26 11:40:13;;;;;;;;;;;;;;;29.32;29.53;101136.94;5004119;28;6965;-73
2022/05/26 11:42:54;;;;;;;;;;;;;;;29.42;29.86;101140.25;5006907;28;6817;-73
2022/05/26 11:45:27;;;;;;;;;;;;;;;29.60;29.88;101132.91;5014862;28;6887;-73
2022/05/26 11:48:00;;;;;;;;;;;;;;;29.83;29.50;101128.91;5037458;28;6899;-73
2022/05/26 11:50:48;;;;;;;;;;;;;;;29.95;29.02;101128.69;5036059;28;7186;-73
2022/05/26 11:53:38;;;;;;;;;;;;;;;30.44;29.63;101125.84;5016714;28;7876;-74
2022/05/26 11:56:26;;;;;;;;;;;;;;;31.06;28.47;101124.31;5004784;28;6812;-74
2022/05/26 11:59:45;;;;;;;;;;;;;;;31.34;28.32;101138.63;5023532;28;6892;-74
2022/05/26 12:02:16;;;;;;;;;;;;;;;31.37;28.05;101128.81;5002729;28;6999;-73
2022/05/26 12:04:47;;;;;;;;;;;;;;;31.41;28.17;101130.47;5042565;28;6811;-73
2022/05/26 12:07:17;;;;;;;;;;;;;;;31.66;27.69;101134.22;5001188;28;7083;-73
2022/05/26 12:09:54;;;;;;;;;;;;;;;31.85;27.27;101121.28;5017686;28;6949;-73
2022/05/26 12:12:23;;;;;;;;;;;;;;;31.65;27.32;101128.03;5011048;28;8428;-73
2022/05/26 12:14:55;;;;;;;;;;;;;;;31.32;27.50;101136.03;5016779;28;6830;-73
2022/05/26 12:17:34;;;;;;;;;;;;;;;31.24;27.73;101133.59;5030224;28;6828;-73
2022/05/26 12:20:12;;;;;;;;;;;;;;;31.43;27.80;101138.34;5003706;28;6807;-73
2022/05/26 12:22:49;;;;;;;;;;;;;;;31.86;27.47;101123.03;5013639;28;6915;-73
2022/05/26 12:25:30;;;;;;;;;;;;;;;32.37;27.49;101112.69;5010260;28;6963;-73
2022/05/26 12:28:13;;;;;;;;;;;;;;;32.83;27.05;101119.06;5040375;28;7264;-73
2022/05/26 12:30:45;;;;;;;;;;;;;;;33.15;26.01;101112.75;5012580;28;8292;-74
2022/05/26 12:33:19;;;;;;;;;;;;;;;33.25;26.18;101114.16;5011470;28;6851;-74
2022/05/26 12:36:31;;;;;;;;;;;;;;;33.28;26.11;101102.56;5005567;28;7168;-73
2022/05/26 12:39:31;;;;;;;;;;;;;;;32.98;25.52;101106.25;5008926;28;7429;-74
2022/05/26 12:42:55;;;;;;;;;;;;;;;32.38;26.08;101104.66;5007613;28;6888;-73
2022/05/26 12:45:49;;;;;;;;;;;;;;;32.23;25.48;101098.03;4995026;28;6827;-73
2022/05/26 12:48:57;;;;;;;;;;;;;;;31.93;26.10;101091.94;5030195;28;6823;-73
2022/05/26 12:51:24;;;;;;;;;;;;;;;31.77;25.98;101083.53;5003818;28;7704;-73
2022/05/26 12:53:56;;;;;;;;;;;;;;;31.53;26.25;101088.66;5003581;28;6828;-72
2022/05/26 12:56:52;;;;;;;;;;;;;;;31.24;26.30;101093.00;4981107;28;6896;-72
2022/05/26 12:59:25;;;;;;;;;;;;;;;31.15;27.38;101086.16;5002161;28;6894;-73
2022/05/26 13:01:52;;;;;;;;;;;;;;;31.42;26.65;101076.59;5035240;28;7034;-73
2022/05/26 13:04:32;;;;;;;;;;;;;;;31.44;27.28;101072.13;5008324;28;6911;-73
2022/05/26 13:07:05;;;;;;;;;;;;;;;31.34;26.81;101075.94;5014302;28;8384;-73
2022/05/26 13:09:53;;;;;;;;;;;;;;;31.11;27.37;101074.78;5000757;28;6835;-73
2022/05/26 13:12:25;;;;;;;;;;;;;;;30.85;27.63;101073.72;5038388;28;6981;-73
2022/05/26 13:14:56;;;;;;;;;;;;;;;30.67;27.58;101069.78;5039131;28;6815;-73
2022/05/26 13:17:28;;;;;;;;;;;;;;;30.82;28.06;101076.44;5014002;28;6815;-73
2022/05/26 13:20:00;;;;;;;;;;;;;;;31.20;28.12;101068.38;5035018;28;7916;-73
2022/05/26 13:22:32;;;;;;;;;;;;;;;31.53;27.22;101055.13;5013583;28;6815;-73
2022/05/26 13:25:26;;;;;;;;;;;;;;;31.36;26.88;101058.22;5004175;28;6820;-73
2022/05/26 13:28:04;;;;;;;;;;;;;;;30.95;27.26;101054.94;5003366;28;7385;-73
2022/05/26 13:33:40;;;;;;;;;;;;;;;30.85;27.74;101060.47;5010885;28;6894;-73
2022/05/26 13:36:06;;;;;;;;;;;;;;;30.74;27.09;101057.25;5035717;28;6812;-73
2022/05/26 13:38:46;;;;;;;;;;;;;;;30.63;27.74;101057.50;5036105;28;6784;-73
2022/05/26 13:41:18;;;;;;;;;;;;;;;30.51;27.71;101061.31;5018112;28;6827;-73
2022/05/26 13:43:47;;;;;;;;;;;;;;;30.42;28.23;101065.06;5038225;28;7240;-74
2022/05/26 13:46:40;;;;;;;;;;;;;;;30.62;28.04;101068.97;5021704;28;7193;-74
2022/05/26 13:49:34;;;;;;;;;;;;;;;30.71;27.12;101070.53;4984094;28;6977;-74
2022/05/26 13:52:23;;;;;;;;;;;;;;;30.80;27.57;101069.44;5015780;28;7054;-73
2022/05/26 13:54:54;;;;;;;;;;;;;;;30.80;27.29;101065.00;5001925;28;7168;-73
2022/05/26 13:57:39;;;;;;;;;;;;;;;30.80;27.99;101057.06;5018695;28;7089;-74
2022/05/26 14:00:14;;;;;;;;;;;;;;;30.82;27.37;101062.34;5028757;28;7043;-74
2022/05/26 14:02:56;;;;;;;;;;;;;;;30.73;27.13;101063.47;5017639;28;7469;-74
2022/05/26 14:05:32;;;;;;;;;;;;;;;30.52;27.35;101055.16;5035374;28;8164;-74
2022/05/26 14:07:57;;;;;;;;;;;;;;;30.27;27.75;101047.81;5033914;28;7266;-74